sensor_id;sensor_type;location;lat;lon;timestamp;P1;durP1;ratioP1;P2;durP2;ratioP2
64110;SDS011;50401;48.188;11.566;2023-05-10T15:05:52;9.57;;;1.90;;
64110;SDS011;50401;48.188;11.566;2023-05-10T15:08:18;6.93;;;1.90;;
64110;SDS011;50401;48.188;11.566;2023-05-10T15:10:43;2.97;;;1.30;;
64110;SDS011;50401;48.188;11.566;2023-05-10T15:13:09;3.35;;;2.03;;
64110;SDS011;50401;48.188;11.566;2023-05-10T15:15:34;3.45;;;1.20;;
64110;SDS011;50401;48.188;11.566;2023-05-10T15:17:59;2.20;;;1.23;;
64110;SDS011;50401;48.188;11.566;2023-05-10T15:22:54;4.72;;;1.10;;
64110;SDS011;50401;48.188;11.566;2023-05-10T15:25:20;4.85;;;1.40;;
64110;SDS011;50401;48.188;11.566;2023-05-10T15:27:45;4.65;;;1.40;;
64110;SDS011;50401;48.188;11.566;2023-05-10T15:30:11;3.90;;;1.50;;
64110;SDS011;50401;48.188;11.566;2023-05-10T15:32:37;1.45;;;1.00;;
64110;SDS011;50401;48.188;11.566;2023-05-10T15:35:04;3.88;;;2.05;;
64110;SDS011;50401;48.188;11.566;2023-05-10T15:37:33;1.90;;;1.10;;
64110;SDS011;50401;48.188;11.566;2023-05-10T15:39:59;2.72;;;1.02;;
64110;SDS011;50401;48.188;11.566;2023-05-10T15:42:28;4.00;;;1.58;;
64110;SDS011;50401;48.188;11.566;2023-05-10T15:44:56;1.27;;;1.10;;
64110;SDS011;50401;48.188;11.566;2023-05-10T15:47:22;3.08;;;1.27;;
64110;SDS011;50401;48.188;11.566;2023-05-10T15:49:48;1.55;;;1.13;;
64110;SDS011;50401;48.188;11.566;2023-05-10T15:52:13;1.60;;;1.23;;
64110;SDS011;50401;48.188;11.566;2023-05-10T15:54:39;1.58;;;1.20;;
64110;SDS011;50401;48.188;11.566;2023-05-10T15:57:04;2.80;;;1.60;;
64110;SDS011;50401;48.188;11.566;2023-05-10T15:59:30;3.25;;;1.77;;
64110;SDS011;50401;48.188;11.566;2023-05-10T16:01:56;11.15;;;3.60;;
64110;SDS011;50401;48.188;11.566;2023-05-10T16:04:22;3.40;;;1.42;;
64110;SDS011;50401;48.188;11.566;2023-05-10T16:06:47;3.50;;;2.25;;
64110;SDS011;50401;48.188;11.566;2023-05-10T16:09:13;3.67;;;2.53;;
64110;SDS011;50401;48.188;11.566;2023-05-10T16:11:39;5.00;;;2.30;;
64110;SDS011;50401;48.188;11.566;2023-05-10T16:14:07;3.90;;;1.20;;
64110;SDS011;50401;48.188;11.566;2023-05-10T16:16:32;5.25;;;1.20;;
64110;SDS011;50401;48.188;11.566;2023-05-10T16:18:58;3.03;;;1.00;;
64110;SDS011;50401;48.188;11.566;2023-05-10T16:21:25;5.72;;;2.40;;
64110;SDS011;50401;48.188;11.566;2023-05-10T16:23:51;3.17;;;1.55;;
64110;SDS011;50401;48.188;11.566;2023-05-10T16:26:17;5.15;;;1.80;;
64110;SDS011;50401;48.188;11.566;2023-05-10T16:28:42;2.05;;;1.30;;
64110;SDS011;50401;48.188;11.566;2023-05-10T16:31:07;4.20;;;2.08;;
64110;SDS011;50401;48.188;11.566;2023-05-10T16:33:33;3.35;;;1.40;;
64110;SDS011;50401;48.188;11.566;2023-05-10T16:35:58;2.55;;;1.15;;
64110;SDS011;50401;48.188;11.566;2023-05-10T16:38:23;4.18;;;1.80;;
64110;SDS011;50401;48.188;11.566;2023-05-10T16:40:49;5.68;;;1.70;;
64110;SDS011;50401;48.188;11.566;2023-05-10T16:43:14;6.10;;;1.73;;
64110;SDS011;50401;48.188;11.566;2023-05-10T16:45:39;2.75;;;1.55;;
64110;SDS011;50401;48.188;11.566;2023-05-10T16:48:06;5.53;;;1.40;;
64110;SDS011;50401;48.188;11.566;2023-05-10T16:50:31;4.53;;;1.40;;
64110;SDS011;50401;48.188;11.566;2023-05-10T16:52:57;4.05;;;1.50;;
64110;SDS011;50401;48.188;11.566;2023-05-10T16:55:22;3.20;;;1.50;;
64110;SDS011;50401;48.188;11.566;2023-05-10T16:57:48;4.35;;;1.65;;
64110;SDS011;50401;48.188;11.566;2023-05-10T17:00:13;5.82;;;1.55;;
64110;SDS011;50401;48.188;11.566;2023-05-10T17:02:39;2.60;;;1.35;;
64110;SDS011;50401;48.188;11.566;2023-05-10T17:05:05;8.10;;;1.67;;
64110;SDS011;50401;48.188;11.566;2023-05-10T17:07:31;3.25;;;1.67;;
64110;SDS011;50401;48.188;11.566;2023-05-10T17:09:57;6.80;;;2.08;;
64110;SDS011;50401;48.188;11.566;2023-05-10T17:12:23;5.10;;;1.70;;
64110;SDS011;50401;48.188;11.566;2023-05-10T17:14:49;7.53;;;2.78;;
64110;SDS011;50401;48.188;11.566;2023-05-10T17:17:14;5.97;;;1.23;;
64110;SDS011;50401;48.188;11.566;2023-05-10T18:34:04;5.18;;;1.45;;
64110;SDS011;50401;48.188;11.566;2023-05-10T18:36:30;2.70;;;1.40;;
64110;SDS011;50401;48.188;11.566;2023-05-10T18:38:56;2.78;;;1.52;;
64110;SDS011;50401;48.188;11.566;2023-05-10T18:41:22;3.85;;;1.33;;
64110;SDS011;50401;48.188;11.566;2023-05-10T18:43:50;2.08;;;1.23;;
64110;SDS011;50401;48.188;11.566;2023-05-10T18:46:16;2.92;;;1.70;;
64110;SDS011;50401;48.188;11.566;2023-05-10T18:48:41;1.75;;;1.20;;
64110;SDS011;50401;48.188;11.566;2023-05-10T18:51:07;3.33;;;1.27;;
64110;SDS011;50401;48.188;11.566;2023-05-10T18:53:32;2.53;;;1.40;;
64110;SDS011;50401;48.188;11.566;2023-05-10T18:55:58;1.48;;;1.02;;
64110;SDS011;50401;48.188;11.566;2023-05-10T18:58:25;4.35;;;1.52;;
64110;SDS011;50401;48.188;11.566;2023-05-10T19:00:54;3.15;;;2.13;;
64110;SDS011;50401;48.188;11.566;2023-05-10T19:03:20;5.78;;;2.20;;
64110;SDS011;50401;48.188;11.566;2023-05-10T19:05:46;2.80;;;1.50;;
64110;SDS011;50401;48.188;11.566;2023-05-10T19:08:15;2.40;;;1.70;;
64110;SDS011;50401;48.188;11.566;2023-05-10T19:10:48;3.83;;;1.50;;
64110;SDS011;50401;48.188;11.566;2023-05-10T19:13:17;2.83;;;1.52;;
64110;SDS011;50401;48.188;11.566;2023-05-10T19:16:04;3.50;;;1.63;;
64110;SDS011;50401;48.188;11.566;2023-05-10T19:18:34;3.38;;;2.00;;
64110;SDS011;50401;48.188;11.566;2023-05-10T19:20:59;3.38;;;1.83;;
64110;SDS011;50401;48.188;11.566;2023-05-10T19:23:28;5.35;;;2.40;;
64110;SDS011;50401;48.188;11.566;2023-05-10T19:25:55;5.18;;;1.48;;
64110;SDS011;50401;48.188;11.566;2023-05-10T19:28:20;5.35;;;1.73;;
64110;SDS011;50401;48.188;11.566;2023-05-10T19:30:46;3.53;;;1.85;;
64110;SDS011;50401;48.188;11.566;2023-05-10T19:33:13;6.88;;;1.88;;
64110;SDS011;50401;48.188;11.566;2023-05-10T19:35:38;3.75;;;1.92;;
64110;SDS011;50401;48.188;11.566;2023-05-10T19:38:04;8.98;;;4.10;;
64110;SDS011;50401;48.188;11.566;2023-05-10T19:40:30;10.77;;;3.53;;
64110;SDS011;50401;48.188;11.566;2023-05-10T19:42:55;5.57;;;2.35;;
64110;SDS011;50401;48.188;11.566;2023-05-10T19:45:21;4.07;;;2.25;;
64110;SDS011;50401;48.188;11.566;2023-05-10T19:47:46;4.63;;;2.00;;
64110;SDS011;50401;48.188;11.566;2023-05-10T19:50:12;3.42;;;1.80;;
64110;SDS011;50401;48.188;11.566;2023-05-10T19:52:40;3.95;;;2.22;;
64110;SDS011;50401;48.188;11.566;2023-05-10T19:55:05;4.68;;;2.03;;
64110;SDS011;50401;48.188;11.566;2023-05-10T19:57:31;5.03;;;2.33;;
64110;SDS011;50401;48.188;11.566;2023-05-10T19:59:57;7.28;;;2.42;;
64110;SDS011;50401;48.188;11.566;2023-05-10T20:02:23;4.50;;;2.67;;
64110;SDS011;50401;48.188;11.566;2023-05-10T20:04:49;5.13;;;2.80;;
64110;SDS011;50401;48.188;11.566;2023-05-10T20:07:18;4.55;;;2.53;;
64110;SDS011;50401;48.188;11.566;2023-05-10T20:09:43;7.45;;;2.47;;
64110;SDS011;50401;48.188;11.566;2023-05-10T20:12:08;7.82;;;2.55;;
64110;SDS011;50401;48.188;11.566;2023-05-10T20:14:34;5.95;;;3.05;;
64110;SDS011;50401;48.188;11.566;2023-05-10T20:16:59;8.48;;;2.47;;
64110;SDS011;50401;48.188;11.566;2023-05-10T20:19:25;3.63;;;2.20;;
64110;SDS011;50401;48.188;11.566;2023-05-10T20:21:50;6.38;;;2.92;;
64110;SDS011;50401;48.188;11.566;2023-05-10T20:24:15;7.88;;;2.30;;
64110;SDS011;50401;48.188;11.566;2023-05-10T20:26:41;4.57;;;2.38;;
64110;SDS011;50401;48.188;11.566;2023-05-10T20:29:06;5.78;;;1.80;;
64110;SDS011;50401;48.188;11.566;2023-05-10T20:31:33;2.83;;;1.55;;
64110;SDS011;50401;48.188;11.566;2023-05-10T20:33:58;3.88;;;2.08;;
64110;SDS011;50401;48.188;11.566;2023-05-10T20:36:24;5.97;;;2.10;;
64110;SDS011;50401;48.188;11.566;2023-05-10T20:38:50;5.32;;;2.33;;
64110;SDS011;50401;48.188;11.566;2023-05-10T20:41:15;6.82;;;2.67;;
64110;SDS011;50401;48.188;11.566;2023-05-10T20:43:41;9.65;;;3.17;;
64110;SDS011;50401;48.188;11.566;2023-05-10T20:46:06;3.80;;;2.30;;
64110;SDS011;50401;48.188;11.566;2023-05-10T20:48:32;4.38;;;2.28;;
64110;SDS011;50401;48.188;11.566;2023-05-10T20:50:58;7.05;;;2.22;;
64110;SDS011;50401;48.188;11.566;2023-05-10T20:53:25;6.95;;;2.20;;
64110;SDS011;50401;48.188;11.566;2023-05-10T20:55:50;5.28;;;2.10;;
64110;SDS011;50401;48.188;11.566;2023-05-10T20:58:16;10.95;;;3.42;;
64110;SDS011;50401;48.188;11.566;2023-05-10T21:00:41;6.80;;;2.63;;
64110;SDS011;50401;48.188;11.566;2023-05-10T21:03:06;5.00;;;2.17;;
64110;SDS011;50401;48.188;11.566;2023-05-10T21:05:32;3.00;;;2.05;;
64110;SDS011;50401;48.188;11.566;2023-05-10T21:07:57;4.88;;;2.30;;
64110;SDS011;50401;48.188;11.566;2023-05-10T21:10:22;5.03;;;2.70;;
64110;SDS011;50401;48.188;11.566;2023-05-10T21:12:52;8.52;;;2.85;;
64110;SDS011;50401;48.188;11.566;2023-05-10T21:15:17;5.20;;;2.85;;
64110;SDS011;50401;48.188;11.566;2023-05-10T21:17:43;7.75;;;3.03;;
64110;SDS011;50401;48.188;11.566;2023-05-10T21:20:09;6.72;;;3.55;;
64110;SDS011;50401;48.188;11.566;2023-05-10T21:22:35;7.22;;;2.83;;
64110;SDS011;50401;48.188;11.566;2023-05-10T21:25:00;10.23;;;3.88;;
64110;SDS011;50401;48.188;11.566;2023-05-10T21:27:26;5.18;;;2.67;;
64110;SDS011;50401;48.188;11.566;2023-05-10T21:29:51;4.28;;;2.63;;
64110;SDS011;50401;48.188;11.566;2023-05-10T21:32:17;4.85;;;3.00;;
64110;SDS011;50401;48.188;11.566;2023-05-10T21:34:42;9.05;;;5.20;;
64110;SDS011;50401;48.188;11.566;2023-05-10T21:37:07;5.65;;;2.72;;
64110;SDS011;50401;48.188;11.566;2023-05-10T21:39:33;5.72;;;2.30;;
64110;SDS011;50401;48.188;11.566;2023-05-10T21:41:58;6.00;;;2.17;;
64110;SDS011;50401;48.188;11.566;2023-05-10T21:44:24;6.70;;;2.63;;
64110;SDS011;50401;48.188;11.566;2023-05-10T21:46:49;5.25;;;2.33;;
64110;SDS011;50401;48.188;11.566;2023-05-10T21:49:15;2.35;;;2.10;;
64110;SDS011;50401;48.188;11.566;2023-05-10T21:51:40;3.38;;;1.98;;
64110;SDS011;50401;48.188;11.566;2023-05-10T21:54:05;3.15;;;2.30;;
64110;SDS011;50401;48.188;11.566;2023-05-10T21:56:33;2.80;;;1.85;;
64110;SDS011;50401;48.188;11.566;2023-05-10T21:58:59;6.47;;;2.15;;
64110;SDS011;50401;48.188;11.566;2023-05-10T22:01:24;3.67;;;1.92;;
64110;SDS011;50401;48.188;11.566;2023-05-10T22:03:49;4.45;;;2.03;;
64110;SDS011;50401;48.188;11.566;2023-05-10T22:06:15;4.75;;;2.20;;
64110;SDS011;50401;48.188;11.566;2023-05-10T22:08:41;5.97;;;1.83;;
64110;SDS011;50401;48.188;11.566;2023-05-10T22:11:06;4.03;;;1.80;;
64110;SDS011;50401;48.188;11.566;2023-05-10T22:13:35;5.40;;;1.73;;
64110;SDS011;50401;48.188;11.566;2023-05-10T22:16:01;5.10;;;2.13;;
64110;SDS011;50401;48.188;11.566;2023-05-10T22:18:26;5.05;;;2.08;;
64110;SDS011;50401;48.188;11.566;2023-05-10T22:20:51;3.67;;;1.80;;
64110;SDS011;50401;48.188;11.566;2023-05-10T22:23:17;2.08;;;1.85;;
64110;SDS011;50401;48.188;11.566;2023-05-10T22:25:42;2.50;;;1.77;;
64110;SDS011;50401;48.188;11.566;2023-05-10T22:28:08;4.07;;;1.85;;
64110;SDS011;50401;48.188;11.566;2023-05-10T22:30:34;5.30;;;1.95;;
64110;SDS011;50401;48.188;11.566;2023-05-10T22:32:59;10.18;;;1.63;;
64110;SDS011;50401;48.188;11.566;2023-05-10T22:35:25;2.20;;;1.63;;
64110;SDS011;50401;48.188;11.566;2023-05-10T22:37:50;2.42;;;1.85;;
64110;SDS011;50401;48.188;11.566;2023-05-10T22:40:16;3.20;;;1.90;;
64110;SDS011;50401;48.188;11.566;2023-05-10T22:42:41;5.18;;;1.85;;
64110;SDS011;50401;48.188;11.566;2023-05-10T22:45:07;3.17;;;1.50;;
64110;SDS011;50401;48.188;11.566;2023-05-10T22:47:32;3.00;;;1.80;;
64110;SDS011;50401;48.188;11.566;2023-05-10T22:49:58;5.18;;;1.70;;
64110;SDS011;50401;48.188;11.566;2023-05-10T22:52:23;2.60;;;1.70;;
64110;SDS011;50401;48.188;11.566;2023-05-10T22:54:49;4.95;;;1.40;;
64110;SDS011;50401;48.188;11.566;2023-05-10T22:57:14;5.45;;;1.70;;
64110;SDS011;50401;48.188;11.566;2023-05-10T22:59:40;2.50;;;1.30;;
64110;SDS011;50401;48.188;11.566;2023-05-10T23:02:06;2.67;;;1.50;;
64110;SDS011;50401;48.188;11.566;2023-05-10T23:04:32;3.78;;;1.50;;
64110;SDS011;50401;48.188;11.566;2023-05-10T23:06:57;3.97;;;1.55;;
64110;SDS011;50401;48.188;11.566;2023-05-10T23:09:22;2.65;;;1.25;;
64110;SDS011;50401;48.188;11.566;2023-05-10T23:11:48;2.63;;;1.30;;
64110;SDS011;50401;48.188;11.566;2023-05-10T23:14:13;3.90;;;1.75;;
64110;SDS011;50401;48.188;11.566;2023-05-10T23:16:38;2.97;;;1.25;;
64110;SDS011;50401;48.188;11.566;2023-05-10T23:19:04;2.10;;;1.00;;
64110;SDS011;50401;48.188;11.566;2023-05-10T23:21:30;3.17;;;1.33;;
64110;SDS011;50401;48.188;11.566;2023-05-10T23:23:56;1.65;;;1.08;;
64110;SDS011;50401;48.188;11.566;2023-05-10T23:26:21;5.25;;;1.15;;
64110;SDS011;50401;48.188;11.566;2023-05-10T23:28:46;1.85;;;1.10;;
64110;SDS011;50401;48.188;11.566;2023-05-10T23:31:12;3.60;;;1.40;;
64110;SDS011;50401;48.188;11.566;2023-05-10T23:33:37;2.38;;;1.40;;
64110;SDS011;50401;48.188;11.566;2023-05-10T23:36:02;2.38;;;1.33;;
64110;SDS011;50401;48.188;11.566;2023-05-10T23:41:50;2.45;;;1.40;;
64110;SDS011;50401;48.188;11.566;2023-05-10T23:44:16;2.53;;;1.20;;
64110;SDS011;50401;48.188;11.566;2023-05-10T23:46:41;3.65;;;1.00;;
64110;SDS011;50401;48.188;11.566;2023-05-10T23:49:06;1.90;;;1.20;;
64110;SDS011;50401;48.188;11.566;2023-05-10T23:51:32;1.25;;;1.00;;
64110;SDS011;50401;48.188;11.566;2023-05-10T23:53:57;3.15;;;0.88;;
64110;SDS011;50401;48.188;11.566;2023-05-10T23:56:23;1.63;;;1.10;;
64110;SDS011;50401;48.188;11.566;2023-05-10T23:58:48;2.03;;;1.23;;
